createdAt,value
2022-09-03T00:00:58.452Z,101044.88
2022-09-03T00:03:35.983Z,101053.13
2022-09-03T00:06:28.824Z,101050.91
2022-09-03T00:09:15.118Z,101049.03
2022-09-03T00:11:55.515Z,101043.97
2022-09-03T00:14:37.039Z,101046.69
2022-09-03T00:17:14.014Z,101043.34
2022-09-03T00:19:50.272Z,101047.50
2022-09-03T00:22:24.658Z,101047.66
2022-09-03T00:24:55.373Z,101046.22
2022-09-03T00:27:30.546Z,101043.41
2022-09-03T00:30:11.290Z,101050.69
2022-09-03T00:32:50.955Z,101048.16
2022-09-03T00:35:28.718Z,101050.06
2022-09-03T00:37:59.979Z,101055.16
2022-09-03T00:41:03.968Z,101046.28
2022-09-03T00:43:53.641Z,101050.84
2022-09-03T00:46:49.663Z,101059.56
2022-09-03T00:49:40.149Z,101053.88
2022-09-03T00:52:53.283Z,101050.72
2022-09-03T00:55:37.795Z,101054.84
2022-09-03T00:58:10.827Z,101058.16
2022-09-03T01:00:42.828Z,101045.31
2022-09-03T01:03:18.680Z,101053.28
2022-09-03T01:06:21.358Z,101046.28
2022-09-03T01:09:04.361Z,101055.31
2022-09-03T01:11:55.469Z,101050.59
2022-09-03T01:15:05.308Z,101061.34
2022-09-03T01:17:59.681Z,101057.06
2022-09-03T01:20:48.493Z,101056.13
2022-09-03T01:23:28.600Z,101052.63
2022-09-03T01:26:17.207Z,101055.47
2022-09-03T01:29:08.730Z,101056.41
2022-09-03T01:31:58.296Z,101049.47
2022-09-03T01:34:51.190Z,101056.72
2022-09-03T01:37:31.640Z,101056.41
2022-09-03T01:40:21.892Z,101051.66
2022-09-03T01:43:37.106Z,101051.66
2022-09-03T01:46:17.119Z,101056.13
2022-09-03T01:48:56.267Z,101049.63
2022-09-03T01:51:32.778Z,101047.84
2022-09-03T01:54:36.142Z,101050.72
2022-09-03T01:57:42.655Z,101043.28
2022-09-03T02:00:20.442Z,101046.59
2022-09-03T02:02:55.363Z,101052.47
2022-09-03T02:05:30.433Z,101051.66
2022-09-03T02:08:09.481Z,101059.25
2022-09-03T02:10:55.098Z,101048.34
2022-09-03T02:13:29.614Z,101047.56
2022-09-03T02:16:02.785Z,101047.69
2022-09-03T02:18:36.860Z,101049.78
2022-09-03T02:21:06.659Z,101044.72
2022-09-03T02:23:36.832Z,101045.63
2022-09-03T02:26:06.683Z,101041.38
2022-09-03T02:28:36.862Z,101037.06
2022-09-03T02:31:07.053Z,101045.31
2022-09-03T02:33:41.092Z,101042.13
2022-09-03T02:36:20.903Z,101044.00
2022-09-03T02:38:50.444Z,101048.09
2022-09-03T02:41:19.743Z,101045.72
2022-09-03T02:43:59.615Z,101047.47
2022-09-03T02:46:37.403Z,101039.88
2022-09-03T02:49:07.352Z,101045.22
2022-09-03T02:51:39.160Z,101039.69
2022-09-03T02:54:09.275Z,101047.13
2022-09-03T02:56:38.578Z,101040.31
2022-09-03T02:59:09.369Z,101039.84
2022-09-03T03:01:39.356Z,101038.41
2022-09-03T03:04:11.359Z,101034.44
2022-09-03T03:06:40.714Z,101039.50
2022-09-03T03:09:11.402Z,101038.84
2022-09-03T03:11:40.900Z,101037.28
2022-09-03T03:14:10.471Z,101026.03
2022-09-03T03:16:40.105Z,101040.25
2022-09-03T03:19:12.076Z,101032.53
2022-09-03T03:21:41.561Z,101030.75
2022-09-03T03:24:11.183Z,101030.75
2022-09-03T03:26:41.426Z,101028.84
2022-09-03T03:29:10.859Z,101029.00
2022-09-03T03:31:42.376Z,101029.47
2022-09-03T03:34:11.784Z,101023.91
2022-09-03T03:36:41.162Z,101037.34
2022-09-03T03:39:11.380Z,101036.53
2022-09-03T03:41:40.854Z,101046.03
2022-09-03T03:44:11.179Z,101035.91
2022-09-03T03:46:43.439Z,101031.16
2022-09-03T03:49:12.797Z,101032.91
2022-09-03T03:51:42.188Z,101033.47
2022-09-03T03:54:17.432Z,101034.91
2022-09-03T03:56:55.266Z,101035.69
2022-09-03T03:59:25.498Z,101030.13
2022-09-03T04:01:57.621Z,101035.19
2022-09-03T04:04:27.013Z,101027.09
2022-09-03T04:06:56.438Z,101036.41
2022-09-03T04:09:25.811Z,101033.25
2022-09-03T04:11:56.106Z,101026.59
2022-09-03T04:14:25.737Z,101018.66
2022-09-03T04:16:55.139Z,101021.28
2022-09-03T04:19:25.263Z,101017.31
2022-09-03T04:21:54.597Z,101021.53
2022-09-03T04:24:23.972Z,101011.91
2022-09-03T04:26:54.706Z,101010.91
2022-09-03T04:29:25.449Z,101021.81
2022-09-03T04:32:07.286Z,101007.28
2022-09-03T04:34:36.704Z,101011.19
2022-09-03T04:37:06.046Z,101014.84
2022-09-03T04:39:35.404Z,101023.03
2022-09-03T04:42:04.852Z,101011.00
2022-09-03T04:44:37.494Z,101014.44
2022-09-03T04:47:08.298Z,101011.28
2022-09-03T04:49:37.697Z,101011.75
2022-09-03T04:52:07.045Z,101017.75
2022-09-03T04:54:36.662Z,101019.31
2022-09-03T04:57:06.868Z,101021.84
2022-09-03T04:59:36.406Z,101013.78
2022-09-03T05:02:05.865Z,101011.41
2022-09-03T05:04:35.387Z,101018.00
2022-09-03T05:07:04.828Z,101014.84
2022-09-03T05:09:34.628Z,101015.63
2022-09-03T05:12:04.007Z,101013.25
2022-09-03T05:14:33.819Z,101019.72
2022-09-03T05:17:03.210Z,101012.44
2022-09-03T05:19:32.691Z,101011.69
2022-09-03T05:22:02.029Z,101021.44
2022-09-03T05:24:31.883Z,101012.91
2022-09-03T05:27:02.371Z,101017.34
2022-09-03T05:29:31.698Z,101014.50
2022-09-03T05:32:01.106Z,101013.25
2022-09-03T05:34:31.375Z,101012.44
2022-09-03T05:37:00.911Z,101012.31
2022-09-03T05:39:30.486Z,101004.91
2022-09-03T05:41:59.920Z,101015.25
2022-09-03T05:44:29.687Z,101017.81
2022-09-03T05:46:59.867Z,101017.22
2022-09-03T05:49:30.406Z,101028.78
2022-09-03T05:52:00.051Z,101030.41
2022-09-03T05:54:29.422Z,101030.03
2022-09-03T05:56:58.841Z,101032.16
2022-09-03T05:59:28.270Z,101028.69
2022-09-03T06:02:00.106Z,101029.34
2022-09-03T06:04:29.831Z,101028.91
2022-09-03T06:06:59.265Z,101030.19
2022-09-03T06:09:28.645Z,101022.97
2022-09-03T06:11:58.089Z,101036.09
2022-09-03T06:14:28.746Z,101029.50
2022-09-03T06:16:58.164Z,101024.00
2022-09-03T06:19:27.551Z,101031.63
2022-09-03T06:21:56.919Z,101036.69
2022-09-03T06:24:27.988Z,101042.28
2022-09-03T06:26:59.428Z,101036.75
2022-09-03T06:29:29.034Z,101037.72
2022-09-03T06:32:00.202Z,101043.91
2022-09-03T06:34:29.681Z,101041.88
2022-09-03T06:36:59.115Z,101041.88
2022-09-03T06:39:28.548Z,101042.63
2022-09-03T06:41:57.929Z,101041.56
2022-09-03T06:44:35.965Z,101041.84
2022-09-03T06:47:05.297Z,101038.69
2022-09-03T06:49:34.652Z,101024.41
2022-09-03T06:52:04.135Z,101035.81
2022-09-03T06:54:33.578Z,101037.66
2022-09-03T06:57:03.712Z,101040.81
2022-09-03T06:59:33.120Z,101039.50
2022-09-03T07:02:03.953Z,101036.56
2022-09-03T07:04:34.845Z,101034.59
2022-09-03T07:07:05.376Z,101033.53
2022-09-03T07:09:38.390Z,101034.53
2022-09-03T07:12:07.993Z,101025.03
2022-09-03T07:14:37.388Z,101030.81
2022-09-03T07:17:06.696Z,101035.06
2022-09-03T07:19:36.028Z,101037.94
2022-09-03T07:22:05.339Z,101032.44
2022-09-03T07:24:35.757Z,101027.47
2022-09-03T07:27:05.606Z,101032.63
2022-09-03T07:29:34.999Z,101026.03
2022-09-03T07:32:04.504Z,101037.34
2022-09-03T07:34:35.794Z,101031.38
2022-09-03T07:37:07.375Z,101022.84
2022-09-03T07:39:36.869Z,101031.16
2022-09-03T07:42:07.143Z,101033.66
2022-09-03T07:44:36.549Z,101031.47
2022-09-03T07:47:06.999Z,101033.09
2022-09-03T07:49:36.460Z,101032.34
2022-09-03T07:52:06.023Z,101028.41
2022-09-03T07:54:41.939Z,101035.50
2022-09-03T07:57:11.371Z,101031.88
2022-09-03T07:59:41.025Z,101026.66
2022-09-03T08:02:10.389Z,101034.56
2022-09-03T08:04:41.126Z,101021.81
2022-09-03T08:07:10.536Z,101028.66
2022-09-03T08:09:39.834Z,101027.41
2022-09-03T08:12:09.410Z,101037.09
2022-09-03T08:14:38.916Z,101038.66
2022-09-03T08:17:08.915Z,101038.41
2022-09-03T08:19:38.225Z,101040.50
2022-09-03T08:22:07.598Z,101047.59
2022-09-03T08:24:36.904Z,101041.63
2022-09-03T08:27:06.379Z,101042.13
2022-09-03T08:29:35.729Z,101043.69
2022-09-03T08:32:07.188Z,101045.00
2022-09-03T08:34:36.631Z,101046.84
2022-09-03T08:37:09.983Z,101040.00
2022-09-03T08:39:39.629Z,101046.50
2022-09-03T08:42:24.244Z,101051.97
2022-09-03T08:44:59.604Z,101041.97
2022-09-03T08:47:37.477Z,101047.72
2022-09-03T08:50:22.275Z,101047.22
2022-09-03T08:53:01.062Z,101047.44
2022-09-03T08:55:45.854Z,101046.38
2022-09-03T08:58:17.059Z,101058.16
2022-09-03T09:01:01.657Z,101050.78
2022-09-03T09:03:52.919Z,101054.13
2022-09-03T09:06:42.123Z,101055.44
2022-09-03T09:09:27.853Z,101053.06
2022-09-03T09:12:25.298Z,101064.00
2022-09-03T09:15:15.895Z,101056.59
2022-09-03T09:18:09.856Z,101057.56
2022-09-03T09:21:17.779Z,101055.31
2022-09-03T09:23:51.615Z,101045.28
2022-09-03T09:26:24.207Z,101058.03
2022-09-03T09:29:11.893Z,101055.41
2022-09-03T09:31:45.356Z,101051.16
2022-09-03T09:34:15.381Z,101056.28
2022-09-03T09:36:50.037Z,101057.44
2022-09-03T09:39:19.709Z,101056.06
2022-09-03T09:42:11.145Z,101054.97
2022-09-03T09:44:42.595Z,101061.13
2022-09-03T09:47:26.597Z,101049.31
2022-09-03T09:49:59.265Z,101046.88
2022-09-03T09:52:31.705Z,101055.94
2022-09-03T09:55:23.977Z,101052.91
2022-09-03T09:57:56.028Z,101052.44
2022-09-03T10:00:25.564Z,101048.59
2022-09-03T10:02:57.065Z,101053.09
2022-09-03T10:05:30.822Z,101052.53
2022-09-03T10:08:05.386Z,101050.41
2022-09-03T10:10:43.827Z,101044.38
2022-09-03T10:13:19.399Z,101055.47
2022-09-03T10:15:58.676Z,101050.06
2022-09-03T10:18:39.816Z,101048.50
2022-09-03T10:21:29.076Z,101040.66
2022-09-03T10:24:18.095Z,101037.81
2022-09-03T10:26:47.753Z,101035.91
2022-09-03T10:29:26.050Z,101035.69
2022-09-03T10:32:06.712Z,101038.28
2022-09-03T10:34:45.294Z,101040.72
2022-09-03T10:37:41.128Z,101037.72
2022-09-03T10:40:21.037Z,101038.63
2022-09-03T10:42:57.785Z,101035.25
2022-09-03T10:45:46.036Z,101033.28
2022-09-03T10:48:44.975Z,101040.53
2022-09-03T10:51:23.530Z,101031.03
2022-09-03T10:54:08.126Z,101029.59
2022-09-03T10:57:00.248Z,101038.78
2022-09-03T11:00:07.831Z,101032.28
2022-09-03T11:02:56.130Z,101035.72
2022-09-03T11:05:40.226Z,101037.72
2022-09-03T11:08:15.334Z,101031.44
2022-09-03T11:10:50.225Z,101033.09
2022-09-03T11:13:55.016Z,101034.44
2022-09-03T11:16:29.591Z,101035.25
2022-09-03T11:19:12.000Z,101031.59
2022-09-03T11:21:44.207Z,101026.09
2022-09-03T11:24:30.369Z,101035.03
2022-09-03T11:27:18.378Z,101031.16
2022-09-03T11:30:09.755Z,101020.28
2022-09-03T11:32:42.245Z,101026.09
2022-09-03T11:35:34.432Z,101020.22
2022-09-03T11:38:05.257Z,101023.78
2022-09-03T11:40:40.556Z,101018.28
2022-09-03T11:43:26.281Z,101025.66
2022-09-03T11:46:06.524Z,101015.50
2022-09-03T11:48:49.234Z,101009.91
2022-09-03T11:51:30.476Z,101008.31
2022-09-03T11:54:26.346Z,101008.91
2022-09-03T11:57:32.568Z,101009.03
2022-09-03T12:00:24.995Z,101008.69
2022-09-03T12:02:59.361Z,101011.59
2022-09-03T12:05:49.549Z,101009.56
2022-09-03T12:08:44.166Z,101007.38
2022-09-03T12:11:30.518Z,101004.03
2022-09-03T12:14:36.024Z,101012.03
2022-09-03T12:17:22.236Z,101013.81
2022-09-03T12:20:00.036Z,101006.91
2022-09-03T12:22:32.807Z,101001.00
2022-09-03T12:25:16.880Z,101009.25
2022-09-03T12:27:49.522Z,100998.06
2022-09-03T12:30:26.618Z,100997.03
2022-09-03T12:33:07.717Z,101012.47
2022-09-03T12:38:29.495Z,101001.13
2022-09-03T12:43:55.270Z,101003.97
2022-09-03T12:46:33.193Z,101012.56
2022-09-03T12:52:06.525Z,101001.13
2022-09-03T12:54:40.532Z,100998.56
2022-09-03T12:57:11.859Z,100998.97
2022-09-03T12:59:42.273Z,101003.69
2022-09-03T13:02:28.500Z,101005.72
2022-09-03T13:04:59.084Z,101006.13
2022-09-03T13:07:44.957Z,100999.53
2022-09-03T13:10:30.427Z,101000.59
2022-09-03T13:13:05.697Z,100991.56
2022-09-03T13:15:35.310Z,101000.38
2022-09-03T13:18:16.648Z,100993.25
2022-09-03T13:21:07.394Z,101002.31
2022-09-03T13:23:52.676Z,100996.88
2022-09-03T13:26:36.448Z,100996.91
2022-09-03T13:29:11.921Z,100996.69
2022-09-03T13:31:53.450Z,100985.63
2022-09-03T13:34:42.839Z,100990.56
2022-09-03T13:37:30.520Z,100985.56
2022-09-03T13:40:16.225Z,100987.53
2022-09-03T13:42:53.573Z,100979.88
2022-09-03T13:45:34.576Z,100977.19
2022-09-03T13:48:39.794Z,100984.41
2022-09-03T13:51:51.454Z,100980.66
2022-09-03T13:54:50.228Z,100974.00
2022-09-03T13:57:38.603Z,100979.97
2022-09-03T14:00:15.049Z,100978.91
2022-09-03T14:02:59.197Z,100985.63
2022-09-03T14:05:37.653Z,100975.72
2022-09-03T14:08:18.082Z,100984.16
2022-09-03T14:10:53.435Z,100993.72
2022-09-03T14:14:00.277Z,100987.44
2022-09-03T14:16:40.862Z,100983.16
2022-09-03T14:19:35.593Z,100990.41
2022-09-03T14:22:13.799Z,100977.72
2022-09-03T14:25:03.081Z,100981.75
2022-09-03T14:27:36.019Z,100980.63
2022-09-03T14:30:09.912Z,100980.94
2022-09-03T14:32:43.120Z,100973.94
2022-09-03T14:35:19.901Z,100977.56
2022-09-03T14:38:25.640Z,100987.81
2022-09-03T14:41:01.077Z,100978.03
2022-09-03T14:43:50.300Z,100981.28
2022-09-03T14:46:31.688Z,100983.53
2022-09-03T14:49:18.124Z,100986.44
2022-09-03T14:52:12.477Z,100982.44
2022-09-03T14:55:06.332Z,100982.34
2022-09-03T14:57:58.339Z,100976.19
2022-09-03T15:00:36.827Z,100979.53
2022-09-03T15:03:25.148Z,100980.22
2022-09-03T15:06:10.067Z,100975.88
2022-09-03T15:09:14.043Z,100980.53
2022-09-03T15:11:54.041Z,100975.44
2022-09-03T15:14:29.856Z,100976.09
2022-09-03T15:17:04.917Z,100980.41
2022-09-03T15:19:54.214Z,100976.31
2022-09-03T15:22:23.549Z,100977.19
2022-09-03T15:25:35.543Z,100970.28
2022-09-03T15:28:09.053Z,100974.63
2022-09-03T15:30:47.426Z,100969.47
2022-09-03T15:33:32.028Z,100966.59
2022-09-03T15:36:04.062Z,100978.41
2022-09-03T15:38:55.226Z,100977.84
2022-09-03T15:41:34.687Z,100986.00
2022-09-03T15:44:05.734Z,100980.75
2022-09-03T15:47:00.580Z,100986.34
2022-09-03T15:49:47.132Z,100986.78
2022-09-03T15:52:34.768Z,100991.28
2022-09-03T15:55:17.963Z,100992.59
2022-09-03T15:58:22.545Z,100991.06
2022-09-03T16:00:55.340Z,100995.94
2022-09-03T16:04:01.221Z,100995.63
2022-09-03T16:06:45.148Z,100979.44
2022-09-03T16:09:42.627Z,100985.03
2022-09-03T16:12:19.957Z,100984.91
2022-09-03T16:14:59.347Z,100995.25
2022-09-03T16:17:51.660Z,100985.09
2022-09-03T16:20:25.491Z,100988.91
2022-09-03T16:23:22.283Z,100984.00
2022-09-03T16:26:06.352Z,100992.13
2022-09-03T16:28:44.127Z,100986.97
2022-09-03T16:31:35.233Z,100987.63
2022-09-03T16:34:04.703Z,100987.41
2022-09-03T16:36:56.522Z,100991.16
2022-09-03T16:39:38.116Z,100995.97
2022-09-03T16:42:39.562Z,100999.41
2022-09-03T16:45:27.489Z,100997.84
2022-09-03T16:48:17.876Z,100996.53
2022-09-03T16:51:09.007Z,101003.97
2022-09-03T16:53:41.225Z,101009.16
2022-09-03T16:56:35.731Z,101007.78
2022-09-03T16:59:20.116Z,101013.50
2022-09-03T17:02:40.584Z,101015.47
2022-09-03T17:05:54.606Z,101016.28
2022-09-03T17:08:41.989Z,101015.41
2022-09-03T17:11:30.315Z,101023.69
2022-09-03T17:14:41.660Z,101017.75
2022-09-03T17:17:29.468Z,101013.69
2022-09-03T17:20:26.118Z,101016.09
2022-09-03T17:23:12.735Z,101015.59
2022-09-03T17:25:53.647Z,101015.75
2022-09-03T17:28:57.926Z,101015.03
2022-09-03T17:31:31.969Z,101027.28
2022-09-03T17:34:17.169Z,101028.91
2022-09-03T17:37:07.889Z,101027.09
2022-09-03T17:39:50.789Z,101026.38
2022-09-03T17:42:27.720Z,101025.50
2022-09-03T17:45:06.852Z,101027.22
2022-09-03T17:48:01.255Z,101027.69
2022-09-03T17:50:36.905Z,101040.16
2022-09-03T17:53:21.133Z,101036.81
2022-09-03T17:55:59.391Z,101034.25
2022-09-03T17:58:36.920Z,101040.13
2022-09-03T18:01:28.854Z,101048.84
2022-09-03T18:04:05.310Z,101047.84
2022-09-03T18:06:55.077Z,101051.06
2022-09-03T18:09:50.287Z,101052.69
2022-09-03T18:12:59.837Z,101057.19
2022-09-03T18:15:51.810Z,101053.59
2022-09-03T18:18:31.456Z,101058.88
2022-09-03T18:21:27.820Z,101069.41
2022-09-03T18:24:19.648Z,101081.47
2022-09-03T18:27:11.620Z,101079.88
2022-09-03T18:30:09.398Z,101079.59
2022-09-03T18:32:55.419Z,101084.88
2022-09-03T18:54:07.318Z,101106.81
2022-09-03T19:00:34.808Z,101109.56
2022-09-03T19:03:47.734Z,101118.09
2022-09-03T19:10:58.149Z,101117.16
2022-09-03T19:13:50.948Z,101115.44
2022-09-03T19:16:38.663Z,101134.47
2022-09-03T19:19:30.670Z,101129.16
2022-09-03T19:22:27.551Z,101126.75
2022-09-03T19:25:17.489Z,101128.00
2022-09-03T19:28:21.365Z,101125.56
2022-09-03T19:31:28.399Z,101129.41
2022-09-03T19:34:24.557Z,101137.19
2022-09-03T19:37:26.460Z,101137.34
2022-09-03T19:40:59.250Z,101143.22
2022-09-03T19:44:23.202Z,101138.16
2022-09-03T19:47:09.612Z,101141.16
2022-09-03T19:50:18.635Z,101151.78
2022-09-03T19:53:00.471Z,101144.41
2022-09-03T19:55:48.991Z,101157.88
2022-09-03T19:58:44.312Z,101144.09
2022-09-03T20:01:28.224Z,101155.06
2022-09-03T20:04:11.980Z,101156.81
2022-09-03T20:06:54.490Z,101158.81
2022-09-03T20:09:40.652Z,101163.94
2022-09-03T20:12:12.476Z,101163.53
2022-09-03T20:14:41.835Z,101164.75
2022-09-03T20:17:49.677Z,101169.25
2022-09-03T20:20:33.175Z,101173.09
2022-09-03T20:23:09.806Z,101172.25
2022-09-03T20:26:05.167Z,101168.19
2022-09-03T20:29:00.638Z,101178.25
2022-09-03T20:32:13.778Z,101179.56
2022-09-03T20:35:20.416Z,101190.94
2022-09-03T20:38:04.752Z,101185.59
2022-09-03T20:40:56.643Z,101193.31
2022-09-03T20:43:42.983Z,101195.56
2022-09-03T20:46:42.096Z,101193.69
2022-09-03T20:49:43.354Z,101200.44
2022-09-03T20:52:23.327Z,101198.72
2022-09-03T20:55:18.735Z,101211.09
2022-09-03T20:58:17.128Z,101203.09
2022-09-03T21:00:52.422Z,101213.56
2022-09-03T21:03:25.303Z,101216.44
2022-09-03T21:06:27.171Z,101204.00
2022-09-03T21:09:15.312Z,101216.72
2022-09-03T21:12:01.153Z,101207.72
2022-09-03T21:14:44.079Z,101214.06
2022-09-03T21:17:22.595Z,101218.03
2022-09-03T21:19:58.071Z,101221.66
2022-09-03T21:22:42.770Z,101220.59
2022-09-03T21:25:44.364Z,101219.28
2022-09-03T21:28:22.673Z,101226.63
2022-09-03T21:30:59.515Z,101221.34
2022-09-03T21:33:39.745Z,101226.31
2022-09-03T21:36:23.919Z,101231.84
2022-09-03T21:39:08.518Z,101228.28
2022-09-03T21:41:52.821Z,101219.38
2022-09-03T21:44:33.290Z,101221.75
2022-09-03T21:47:09.050Z,101225.72
2022-09-03T21:49:43.234Z,101224.41
2022-09-03T21:52:25.484Z,101223.34
2022-09-03T21:54:54.859Z,101231.16
2022-09-03T21:57:39.406Z,101232.44
2022-09-03T22:00:22.394Z,101234.41
2022-09-03T22:02:52.624Z,101228.88
2022-09-03T22:05:22.059Z,101234.81
2022-09-03T22:08:24.633Z,101247.06
2022-09-03T22:11:00.830Z,101245.78
2022-09-03T22:14:13.751Z,101248.84
2022-09-03T22:16:54.003Z,101246.69
2022-09-03T22:19:23.438Z,101252.78
2022-09-03T22:22:00.224Z,101245.69
2022-09-03T22:24:38.895Z,101250.00
2022-09-03T22:27:43.740Z,101256.94
2022-09-03T22:30:22.292Z,101253.63
2022-09-03T22:33:15.512Z,101252.34
2022-09-03T22:35:50.219Z,101266.00
2022-09-03T22:38:25.575Z,101264.59
2022-09-03T22:41:24.195Z,101250.34
2022-09-03T22:44:09.257Z,101256.25
2022-09-03T22:47:14.065Z,101254.09
2022-09-03T22:50:08.963Z,101255.06
2022-09-03T22:52:52.211Z,101251.28
2022-09-03T22:55:25.502Z,101258.00
2022-09-03T22:58:12.801Z,101260.06
2022-09-03T23:00:52.766Z,101261.38
2022-09-03T23:03:33.932Z,101255.81
2022-09-03T23:06:12.791Z,101268.25
2022-09-03T23:08:59.398Z,101277.31
2022-09-03T23:11:34.700Z,101271.97
2022-09-03T23:14:12.400Z,101272.34
2022-09-03T23:16:51.219Z,101268.38
2022-09-03T23:19:33.465Z,101265.50
2022-09-03T23:22:15.107Z,101274.28
2022-09-03T23:24:58.323Z,101270.50
2022-09-03T23:27:53.595Z,101268.13
2022-09-03T23:30:23.254Z,101271.66
2022-09-03T23:32:58.092Z,101267.88
2022-09-03T23:35:31.727Z,101240.03
2022-09-03T23:38:22.427Z,101273.31
2022-09-03T23:40:53.787Z,101284.78
2022-09-03T23:43:38.511Z,101289.88
2022-09-03T23:46:07.875Z,101289.25
2022-09-03T23:48:46.507Z,101291.00
2022-09-03T23:51:46.610Z,101288.94
2022-09-03T23:54:41.022Z,101286.88
2022-09-03T23:57:37.212Z,101300.41
